Bucareste, Roménia

03:21 AM EEST em 31 de Julho de 2016 (GMT +0300)
NX Data | | Change Station

Elev 279 ft 44.48 °N, 26.12 °E | Updated 58 seconds ago

Clear
Céu Limpo
72.1 °F
Aparente 75 °F
N
3.8
Vento Variável Vento de Norte
Gusts 3.8 mph

Hoje
Máxima -- | Mínima -- °F
--% Possibilidade de Precip.
Ontem
Máxima -- | Mínima -- °F
Precip. -- pol
Pressão 29.95 pol
Visibilidade -9999.0 milhas
Nuvens
Índice de Calor 75 °F
Ponto de Orvalho 61 °F
Humidade 68%
Chuva 0.00 pol
Altura de Neve Não disponível
6:01 AM 8:41 PM
Quarto minguante, 10% visible
METAR LRBS 310000Z 01002KT 330V040 CAVOK 22/17 Q1014 NOSIG
Pressão 29.95 pol
Visibilidade -9999.0 milhas
Nuvens
Índice de Calor 75 °F
Ponto de Orvalho 61 °F
Humidade 68%
Chuva 0.00 pol
Altura de Neve Não disponível
6:01 AM 8:41 PM
Quarto minguante, 10% visible
METAR LRBS 310000Z 01002KT 330V040 CAVOK 22/17 Q1014 NOSIG

10-Day Weather Forecast

×

Almanac

Astronomia

Jul. 31, 2016 Nascer Pôr
Hora atual
Crepúsculo civil
Crepúsculo náutico
Crepúsculo astronómico
Lua
Comprimento da luz visível
Duração do Dia
Tomorrow will be .
, % of the Moon is Illuminated

Extremos de Hoje

Altitude na localidade Altura mais baixa na localidade

Community

WunderPhotos

Upload Photos

1,928,682 fotografias inseridas!

WunderBlog® & News

Nearby

Qualidade do Ar

  Qualidade do Ar Índice da Q.A. Poluente
Not available.

Altura da Neve

Estação altura Altitude

Actividade Sísmisca

Cidade Distância Mag. Hora & Data
Mínima magnitude apresentada é 2.5.

Temperaturas das Águas Costeiras

Local Temperatura

Stations

Estações Meteorológicas Próximas

Localização da Estação Temp. Sensação Térmica Ponto de Orvalho Humidade Vento Precip. Elev Actualizado Tipo